sensor_id;sensor_type;location;lat;lon;timestamp;P1;durP1;ratioP1;P2;durP2;ratioP2
34359;SDS011;20624;55.870;26.506;2022-08-07T00:00:28;1.75;;;0.70;;
34359;SDS011;20624;55.870;26.506;2022-08-07T00:02:55;2.13;;;0.63;;
34359;SDS011;20624;55.870;26.506;2022-08-07T00:05:23;1.60;;;0.55;;
34359;SDS011;20624;55.870;26.506;2022-08-07T00:07:52;1.30;;;0.70;;
34359;SDS011;20624;55.870;26.506;2022-08-07T00:10:26;2.72;;;0.52;;
34359;SDS011;20624;55.870;26.506;2022-08-07T00:12:57;0.50;;;0.30;;
34359;SDS011;20624;55.870;26.506;2022-08-07T00:15:30;6.05;;;0.55;;
34359;SDS011;20624;55.870;26.506;2022-08-07T00:18:14;1.38;;;0.70;;
34359;SDS011;20624;55.870;26.506;2022-08-07T00:20:48;1.15;;;0.60;;
34359;SDS011;20624;55.870;26.506;2022-08-07T00:23:16;0.68;;;0.45;;
34359;SDS011;20624;55.870;26.506;2022-08-07T00:25:46;2.15;;;0.73;;
34359;SDS011;20624;55.870;26.506;2022-08-07T00:28:26;1.98;;;0.60;;
34359;SDS011;20624;55.870;26.506;2022-08-07T00:31:00;1.50;;;0.40;;
34359;SDS011;20624;55.870;26.506;2022-08-07T00:33:32;1.30;;;0.50;;
34359;SDS011;20624;55.870;26.506;2022-08-07T00:36:00;2.05;;;0.40;;
34359;SDS011;20624;55.870;26.506;2022-08-07T00:38:28;1.25;;;0.40;;
34359;SDS011;20624;55.870;26.506;2022-08-07T00:43:26;0.88;;;0.35;;
34359;SDS011;20624;55.870;26.506;2022-08-07T00:46:15;0.77;;;0.55;;
34359;SDS011;20624;55.870;26.506;2022-08-07T00:48:43;3.90;;;0.40;;
34359;SDS011;20624;55.870;26.506;2022-08-07T00:51:17;1.27;;;0.40;;
34359;SDS011;20624;55.870;26.506;2022-08-07T00:53:44;4.75;;;0.50;;
34359;SDS011;20624;55.870;26.506;2022-08-07T00:56:21;0.88;;;0.30;;
34359;SDS011;20624;55.870;26.506;2022-08-07T00:58:59;1.17;;;0.40;;
34359;SDS011;20624;55.870;26.506;2022-08-07T01:01:27;2.00;;;0.32;;
34359;SDS011;20624;55.870;26.506;2022-08-07T01:04:09;0.30;;;0.20;;
34359;SDS011;20624;55.870;26.506;2022-08-07T01:06:50;2.03;;;0.40;;
34359;SDS011;20624;55.870;26.506;2022-08-07T01:09:19;1.83;;;0.50;;
34359;SDS011;20624;55.870;26.506;2022-08-07T01:12:06;2.83;;;0.60;;
34359;SDS011;20624;55.870;26.506;2022-08-07T01:14:54;0.40;;;0.30;;
34359;SDS011;20624;55.870;26.506;2022-08-07T01:17:29;1.08;;;0.22;;
34359;SDS011;20624;55.870;26.506;2022-08-07T01:20:00;1.17;;;0.43;;
34359;SDS011;20624;55.870;26.506;2022-08-07T01:22:34;1.48;;;0.22;;
34359;SDS011;20624;55.870;26.506;2022-08-07T01:25:12;1.05;;;0.60;;
34359;SDS011;20624;55.870;26.506;2022-08-07T01:28:00;2.65;;;0.28;;
34359;SDS011;20624;55.870;26.506;2022-08-07T01:30:28;3.30;;;0.32;;
34359;SDS011;20624;55.870;26.506;2022-08-07T01:32:56;0.60;;;0.20;;
34359;SDS011;20624;55.870;26.506;2022-08-07T01:35:27;1.05;;;0.30;;
34359;SDS011;20624;55.870;26.506;2022-08-07T01:38:15;1.67;;;0.30;;
34359;SDS011;20624;55.870;26.506;2022-08-07T01:40:54;0.98;;;0.20;;
34359;SDS011;20624;55.870;26.506;2022-08-07T01:43:24;7.72;;;1.00;;
34359;SDS011;20624;55.870;26.506;2022-08-07T01:46:03;3.38;;;0.50;;
34359;SDS011;20624;55.870;26.506;2022-08-07T01:48:39;3.17;;;0.57;;
34359;SDS011;20624;55.870;26.506;2022-08-07T01:51:13;1.48;;;0.40;;
34359;SDS011;20624;55.870;26.506;2022-08-07T01:54:07;0.63;;;0.20;;
34359;SDS011;20624;55.870;26.506;2022-08-07T01:57:00;5.82;;;0.30;;
34359;SDS011;20624;55.870;26.506;2022-08-07T01:59:39;1.23;;;0.40;;
34359;SDS011;20624;55.870;26.506;2022-08-07T02:02:12;2.80;;;0.40;;
34359;SDS011;20624;55.870;26.506;2022-08-07T02:07:55;1.55;;;0.40;;
34359;SDS011;20624;55.870;26.506;2022-08-07T02:10:26;4.65;;;0.47;;
34359;SDS011;20624;55.870;26.506;2022-08-07T02:12:57;2.78;;;0.45;;
34359;SDS011;20624;55.870;26.506;2022-08-07T02:15:27;2.03;;;0.45;;
34359;SDS011;20624;55.870;26.506;2022-08-07T02:17:59;1.58;;;0.40;;
34359;SDS011;20624;55.870;26.506;2022-08-07T02:20:29;4.88;;;0.57;;
34359;SDS011;20624;55.870;26.506;2022-08-07T02:23:02;2.08;;;0.22;;
34359;SDS011;20624;55.870;26.506;2022-08-07T02:25:33;1.30;;;0.30;;
34359;SDS011;20624;55.870;26.506;2022-08-07T02:28:24;0.45;;;0.30;;
34359;SDS011;20624;55.870;26.506;2022-08-07T02:30:55;0.88;;;0.20;;
34359;SDS011;20624;55.870;26.506;2022-08-07T02:33:31;1.15;;;0.60;;
34359;SDS011;20624;55.870;26.506;2022-08-07T02:36:20;0.43;;;0.32;;
34359;SDS011;20624;55.870;26.506;2022-08-07T02:38:56;0.75;;;0.40;;
34359;SDS011;20624;55.870;26.506;2022-08-07T02:41:34;3.30;;;0.43;;
34359;SDS011;20624;55.870;26.506;2022-08-07T02:44:03;3.15;;;0.50;;
34359;SDS011;20624;55.870;26.506;2022-08-07T02:46:31;0.77;;;0.20;;
34359;SDS011;20624;55.870;26.506;2022-08-07T02:49:02;0.73;;;0.30;;
34359;SDS011;20624;55.870;26.506;2022-08-07T02:51:31;1.25;;;0.47;;
34359;SDS011;20624;55.870;26.506;2022-08-07T02:54:15;1.10;;;0.47;;
34359;SDS011;20624;55.870;26.506;2022-08-07T02:56:45;3.20;;;0.40;;
34359;SDS011;20624;55.870;26.506;2022-08-07T02:59:16;1.08;;;0.30;;
34359;SDS011;20624;55.870;26.506;2022-08-07T03:01:52;2.35;;;0.55;;
34359;SDS011;20624;55.870;26.506;2022-08-07T03:04:22;0.32;;;0.32;;
34359;SDS011;20624;55.870;26.506;2022-08-07T03:06:51;0.82;;;0.35;;
34359;SDS011;20624;55.870;26.506;2022-08-07T03:09:20;1.50;;;0.45;;
34359;SDS011;20624;55.870;26.506;2022-08-07T03:12:08;1.15;;;0.20;;
34359;SDS011;20624;55.870;26.506;2022-08-07T03:14:48;0.55;;;0.25;;
34359;SDS011;20624;55.870;26.506;2022-08-07T03:17:17;1.70;;;0.32;;
34359;SDS011;20624;55.870;26.506;2022-08-07T03:19:48;0.30;;;0.22;;
34359;SDS011;20624;55.870;26.506;2022-08-07T03:22:20;1.80;;;0.40;;
34359;SDS011;20624;55.870;26.506;2022-08-07T03:24:56;3.03;;;0.38;;
34359;SDS011;20624;55.870;26.506;2022-08-07T03:27:25;0.80;;;0.35;;
34359;SDS011;20624;55.870;26.506;2022-08-07T03:29:56;0.52;;;0.30;;
34359;SDS011;20624;55.870;26.506;2022-08-07T03:32:25;1.58;;;0.30;;
34359;SDS011;20624;55.870;26.506;2022-08-07T03:35:00;0.00;;;0.00;;
34359;SDS011;20624;55.870;26.506;2022-08-07T03:37:44;2.10;;;0.40;;
34359;SDS011;20624;55.870;26.506;2022-08-07T03:40:19;2.13;;;0.40;;
34359;SDS011;20624;55.870;26.506;2022-08-07T03:42:48;1.35;;;0.30;;
34359;SDS011;20624;55.870;26.506;2022-08-07T03:45:18;4.00;;;0.68;;
34359;SDS011;20624;55.870;26.506;2022-08-07T03:47:57;0.93;;;0.40;;
34359;SDS011;20624;55.870;26.506;2022-08-07T03:50:25;1.67;;;0.40;;
34359;SDS011;20624;55.870;26.506;2022-08-07T03:52:56;1.98;;;0.43;;
34359;SDS011;20624;55.870;26.506;2022-08-07T03:55:26;0.98;;;0.40;;
34359;SDS011;20624;55.870;26.506;2022-08-07T03:58:16;0.63;;;0.30;;
34359;SDS011;20624;55.870;26.506;2022-08-07T04:01:05;1.08;;;0.32;;
34359;SDS011;20624;55.870;26.506;2022-08-07T04:03:36;1.17;;;0.30;;
34359;SDS011;20624;55.870;26.506;2022-08-07T04:06:19;1.30;;;0.30;;
34359;SDS011;20624;55.870;26.506;2022-08-07T04:09:04;0.70;;;0.22;;
34359;SDS011;20624;55.870;26.506;2022-08-07T04:11:41;2.28;;;0.50;;
34359;SDS011;20624;55.870;26.506;2022-08-07T04:14:31;0.95;;;0.32;;
34359;SDS011;20624;55.870;26.506;2022-08-07T04:17:09;1.48;;;0.30;;
34359;SDS011;20624;55.870;26.506;2022-08-07T04:19:47;0.88;;;0.25;;
34359;SDS011;20624;55.870;26.506;2022-08-07T04:22:21;0.30;;;0.30;;
34359;SDS011;20624;55.870;26.506;2022-08-07T04:24:55;1.83;;;0.40;;
34359;SDS011;20624;55.870;26.506;2022-08-07T04:27:27;2.15;;;0.40;;
34359;SDS011;20624;55.870;26.506;2022-08-07T04:30:09;5.22;;;0.57;;
34359;SDS011;20624;55.870;26.506;2022-08-07T04:32:57;0.98;;;0.40;;
34359;SDS011;20624;55.870;26.506;2022-08-07T04:35:25;1.33;;;0.30;;
34359;SDS011;20624;55.870;26.506;2022-08-07T04:38:03;2.58;;;0.60;;
34359;SDS011;20624;55.870;26.506;2022-08-07T04:40:39;0.35;;;0.30;;
34359;SDS011;20624;55.870;26.506;2022-08-07T04:43:24;4.78;;;0.63;;
34359;SDS011;20624;55.870;26.506;2022-08-07T04:51:56;1.83;;;0.52;;
34359;SDS011;20624;55.870;26.506;2022-08-07T04:55:05;1.48;;;0.30;;
34359;SDS011;20624;55.870;26.506;2022-08-07T05:01:11;2.75;;;0.22;;
34359;SDS011;20624;55.870;26.506;2022-08-07T05:04:07;0.17;;;0.15;;
34359;SDS011;20624;55.870;26.506;2022-08-07T05:09:20;0.10;;;0.08;;
34359;SDS011;20624;55.870;26.506;2022-08-07T05:12:09;0.85;;;0.38;;
34359;SDS011;20624;55.870;26.506;2022-08-07T05:14:51;0.77;;;0.03;;
34359;SDS011;20624;55.870;26.506;2022-08-07T05:17:30;0.40;;;0.15;;
34359;SDS011;20624;55.870;26.506;2022-08-07T05:20:21;3.47;;;0.50;;
34359;SDS011;20624;55.870;26.506;2022-08-07T05:22:53;1.77;;;0.17;;
34359;SDS011;20624;55.870;26.506;2022-08-07T05:25:27;0.13;;;0.13;;
34359;SDS011;20624;55.870;26.506;2022-08-07T05:28:15;0.00;;;0.00;;
34359;SDS011;20624;55.870;26.506;2022-08-07T05:30:51;0.32;;;0.15;;
34359;SDS011;20624;55.870;26.506;2022-08-07T05:33:22;0.13;;;0.13;;
34359;SDS011;20624;55.870;26.506;2022-08-07T05:35:52;0.00;;;0.00;;
34359;SDS011;20624;55.870;26.506;2022-08-07T05:38:20;1.35;;;0.35;;
34359;SDS011;20624;55.870;26.506;2022-08-07T05:41:09;0.80;;;0.50;;
34359;SDS011;20624;55.870;26.506;2022-08-07T05:43:41;0.93;;;0.38;;
34359;SDS011;20624;55.870;26.506;2022-08-07T05:46:30;0.95;;;0.55;;
34359;SDS011;20624;55.870;26.506;2022-08-07T05:48:58;0.45;;;0.22;;
34359;SDS011;20624;55.870;26.506;2022-08-07T05:51:37;5.13;;;0.52;;
34359;SDS011;20624;55.870;26.506;2022-08-07T05:54:05;2.17;;;0.40;;
34359;SDS011;20624;55.870;26.506;2022-08-07T05:56:54;1.08;;;0.50;;
34359;SDS011;20624;55.870;26.506;2022-08-07T05:59:24;0.50;;;0.40;;
34359;SDS011;20624;55.870;26.506;2022-08-07T06:01:53;0.45;;;0.30;;
34359;SDS011;20624;55.870;26.506;2022-08-07T06:04:24;0.77;;;0.40;;
34359;SDS011;20624;55.870;26.506;2022-08-07T06:06:56;0.93;;;0.30;;
34359;SDS011;20624;55.870;26.506;2022-08-07T06:09:29;2.35;;;0.73;;
34359;SDS011;20624;55.870;26.506;2022-08-07T06:12:17;0.10;;;0.05;;
34359;SDS011;20624;55.870;26.506;2022-08-07T06:14:57;0.40;;;0.22;;
34359;SDS011;20624;55.870;26.506;2022-08-07T06:17:31;0.05;;;0.05;;
34359;SDS011;20624;55.870;26.506;2022-08-07T06:20:03;0.03;;;0.03;;
34359;SDS011;20624;55.870;26.506;2022-08-07T06:22:41;0.28;;;0.15;;
34359;SDS011;20624;55.870;26.506;2022-08-07T06:25:29;0.03;;;0.03;;
34359;SDS011;20624;55.870;26.506;2022-08-07T06:28:04;0.10;;;0.10;;
34359;SDS011;20624;55.870;26.506;2022-08-07T06:30:34;0.00;;;0.00;;
34359;SDS011;20624;55.870;26.506;2022-08-07T06:33:04;2.83;;;0.65;;
34359;SDS011;20624;55.870;26.506;2022-08-07T06:35:41;0.47;;;0.30;;
34359;SDS011;20624;55.870;26.506;2022-08-07T06:38:13;0.13;;;0.10;;
34359;SDS011;20624;55.870;26.506;2022-08-07T06:40:46;0.15;;;0.10;;
34359;SDS011;20624;55.870;26.506;2022-08-07T06:43:16;1.95;;;0.40;;
34359;SDS011;20624;55.870;26.506;2022-08-07T06:45:48;0.00;;;0.00;;
34359;SDS011;20624;55.870;26.506;2022-08-07T06:48:17;0.00;;;0.00;;
34359;SDS011;20624;55.870;26.506;2022-08-07T06:50:50;3.30;;;0.30;;
34359;SDS011;20624;55.870;26.506;2022-08-07T06:53:20;0.20;;;0.20;;
34359;SDS011;20624;55.870;26.506;2022-08-07T06:56:09;0.47;;;0.22;;
34359;SDS011;20624;55.870;26.506;2022-08-07T06:58:41;0.00;;;0.00;;
34359;SDS011;20624;55.870;26.506;2022-08-07T07:01:30;0.28;;;0.10;;
34359;SDS011;20624;55.870;26.506;2022-08-07T07:04:14;0.00;;;0.00;;
34359;SDS011;20624;55.870;26.506;2022-08-07T07:06:58;1.65;;;0.20;;
34359;SDS011;20624;55.870;26.506;2022-08-07T07:09:29;0.00;;;0.00;;
34359;SDS011;20624;55.870;26.506;2022-08-07T07:17:19;0.10;;;0.10;;
34359;SDS011;20624;55.870;26.506;2022-08-07T07:20:10;0.43;;;0.22;;
34359;SDS011;20624;55.870;26.506;2022-08-07T07:22:38;0.00;;;0.00;;
34359;SDS011;20624;55.870;26.506;2022-08-07T07:25:26;4.93;;;0.35;;
34359;SDS011;20624;55.870;26.506;2022-08-07T07:28:19;0.00;;;0.00;;
34359;SDS011;20624;55.870;26.506;2022-08-07T07:31:14;0.00;;;0.00;;
34359;SDS011;20624;55.870;26.506;2022-08-07T07:33:47;1.10;;;0.25;;
34359;SDS011;20624;55.870;26.506;2022-08-07T07:36:22;0.00;;;0.00;;
34359;SDS011;20624;55.870;26.506;2022-08-07T07:38:58;0.00;;;0.00;;
34359;SDS011;20624;55.870;26.506;2022-08-07T07:41:27;0.00;;;0.00;;
34359;SDS011;20624;55.870;26.506;2022-08-07T07:43:56;1.15;;;0.13;;
34359;SDS011;20624;55.870;26.506;2022-08-07T07:46:46;0.10;;;0.10;;
34359;SDS011;20624;55.870;26.506;2022-08-07T07:49:23;0.20;;;0.10;;
34359;SDS011;20624;55.870;26.506;2022-08-07T07:52:14;0.10;;;0.03;;
34359;SDS011;20624;55.870;26.506;2022-08-07T07:54:43;1.73;;;0.17;;
34359;SDS011;20624;55.870;26.506;2022-08-07T07:57:18;0.43;;;0.00;;
34359;SDS011;20624;55.870;26.506;2022-08-07T08:00:07;0.00;;;0.00;;
34359;SDS011;20624;55.870;26.506;2022-08-07T08:02:35;1.95;;;0.55;;
34359;SDS011;20624;55.870;26.506;2022-08-07T08:05:24;0.00;;;0.00;;
34359;SDS011;20624;55.870;26.506;2022-08-07T08:08:09;0.00;;;0.00;;
34359;SDS011;20624;55.870;26.506;2022-08-07T08:10:58;0.00;;;0.00;;
34359;SDS011;20624;55.870;26.506;2022-08-07T08:13:26;0.00;;;0.00;;
34359;SDS011;20624;55.870;26.506;2022-08-07T08:16:16;0.00;;;0.00;;
34359;SDS011;20624;55.870;26.506;2022-08-07T08:18:50;0.05;;;0.00;;
34359;SDS011;20624;55.870;26.506;2022-08-07T08:21:21;0.00;;;0.00;;
34359;SDS011;20624;55.870;26.506;2022-08-07T08:24:28;0.00;;;0.00;;
34359;SDS011;20624;55.870;26.506;2022-08-07T08:27:37;0.03;;;0.00;;
34359;SDS011;20624;55.870;26.506;2022-08-07T08:30:17;0.00;;;0.00;;
34359;SDS011;20624;55.870;26.506;2022-08-07T08:32:47;0.08;;;0.00;;
34359;SDS011;20624;55.870;26.506;2022-08-07T08:35:17;0.00;;;0.00;;
34359;SDS011;20624;55.870;26.506;2022-08-07T08:37:55;0.85;;;0.30;;
34359;SDS011;20624;55.870;26.506;2022-08-07T08:40:31;0.17;;;0.13;;
34359;SDS011;20624;55.870;26.506;2022-08-07T08:43:13;0.00;;;0.00;;
34359;SDS011;20624;55.870;26.506;2022-08-07T08:45:54;0.00;;;0.00;;
34359;SDS011;20624;55.870;26.506;2022-08-07T08:48:38;0.03;;;0.00;;
34359;SDS011;20624;55.870;26.506;2022-08-07T08:51:25;0.45;;;0.10;;
34359;SDS011;20624;55.870;26.506;2022-08-07T08:56:46;0.05;;;0.00;;
34359;SDS011;20624;55.870;26.506;2022-08-07T08:59:19;0.75;;;0.20;;
34359;SDS011;20624;55.870;26.506;2022-08-07T09:07:48;0.52;;;0.10;;
34359;SDS011;20624;55.870;26.506;2022-08-07T09:25:31;1.48;;;0.20;;
34359;SDS011;20624;55.870;26.506;2022-08-07T09:28:26;1.80;;;0.40;;
34359;SDS011;20624;55.870;26.506;2022-08-07T09:31:24;0.00;;;0.00;;
34359;SDS011;20624;55.870;26.506;2022-08-07T09:36:40;0.00;;;0.00;;
34359;SDS011;20624;55.870;26.506;2022-08-07T09:57:36;2.47;;;0.20;;
34359;SDS011;20624;55.870;26.506;2022-08-07T10:00:15;0.00;;;0.00;;
34359;SDS011;20624;55.870;26.506;2022-08-07T10:09:06;0.52;;;0.28;;
34359;SDS011;20624;55.870;26.506;2022-08-07T10:12:13;0.00;;;0.00;;
34359;SDS011;20624;55.870;26.506;2022-08-07T10:18:16;0.00;;;0.00;;
34359;SDS011;20624;55.870;26.506;2022-08-07T10:23:59;0.00;;;0.00;;
34359;SDS011;20624;55.870;26.506;2022-08-07T10:41:14;0.10;;;0.10;;
34359;SDS011;20624;55.870;26.506;2022-08-07T10:50:22;0.05;;;0.00;;
34359;SDS011;20624;55.870;26.506;2022-08-07T11:10:39;0.40;;;0.10;;
34359;SDS011;20624;55.870;26.506;2022-08-07T11:16:38;0.15;;;0.03;;
34359;SDS011;20624;55.870;26.506;2022-08-07T11:19:28;0.00;;;0.00;;
34359;SDS011;20624;55.870;26.506;2022-08-07T11:28:05;1.27;;;0.08;;
34359;SDS011;20624;55.870;26.506;2022-08-07T11:42:46;0.05;;;0.03;;
34359;SDS011;20624;55.870;26.506;2022-08-07T11:48:41;0.20;;;0.00;;
34359;SDS011;20624;55.870;26.506;2022-08-07T11:51:51;0.00;;;0.00;;
34359;SDS011;20624;55.870;26.506;2022-08-07T11:54:41;0.00;;;0.00;;
34359;SDS011;20624;55.870;26.506;2022-08-07T11:57:40;0.00;;;0.00;;
34359;SDS011;20624;55.870;26.506;2022-08-07T12:06:17;0.00;;;0.00;;
34359;SDS011;20624;55.870;26.506;2022-08-07T12:14:51;0.03;;;0.00;;
34359;SDS011;20624;55.870;26.506;2022-08-07T12:18:15;0.10;;;0.10;;
34359;SDS011;20624;55.870;26.506;2022-08-07T12:20:37;0.00;;;0.00;;
34359;SDS011;20624;55.870;26.506;2022-08-07T12:23:27;0.57;;;0.10;;
34359;SDS011;20624;55.870;26.506;2022-08-07T12:32:20;0.00;;;0.00;;
34359;SDS011;20624;55.870;26.506;2022-08-07T12:34:52;0.00;;;0.00;;
34359;SDS011;20624;55.870;26.506;2022-08-07T12:37:25;0.00;;;0.00;;
34359;SDS011;20624;55.870;26.506;2022-08-07T12:40:22;0.00;;;0.00;;
34359;SDS011;20624;55.870;26.506;2022-08-07T12:43:13;0.00;;;0.00;;
34359;SDS011;20624;55.870;26.506;2022-08-07T12:49:14;0.00;;;0.00;;
34359;SDS011;20624;55.870;26.506;2022-08-07T12:52:12;0.00;;;0.00;;
34359;SDS011;20624;55.870;26.506;2022-08-07T12:54:50;0.00;;;0.00;;
34359;SDS011;20624;55.870;26.506;2022-08-07T12:57:22;0.20;;;0.00;;
34359;SDS011;20624;55.870;26.506;2022-08-07T13:00:14;0.00;;;0.00;;
34359;SDS011;20624;55.870;26.506;2022-08-07T13:03:04;0.00;;;0.00;;
34359;SDS011;20624;55.870;26.506;2022-08-07T13:06:23;0.00;;;0.00;;
34359;SDS011;20624;55.870;26.506;2022-08-07T13:20:14;0.00;;;0.00;;
34359;SDS011;20624;55.870;26.506;2022-08-07T13:23:06;0.08;;;0.08;;
34359;SDS011;20624;55.870;26.506;2022-08-07T13:26:10;0.28;;;0.20;;
34359;SDS011;20624;55.870;26.506;2022-08-07T13:28:54;0.00;;;0.00;;
34359;SDS011;20624;55.870;26.506;2022-08-07T13:31:35;0.00;;;0.00;;
34359;SDS011;20624;55.870;26.506;2022-08-07T13:37:02;0.00;;;0.00;;
34359;SDS011;20624;55.870;26.506;2022-08-07T13:39:58;0.00;;;0.00;;
34359;SDS011;20624;55.870;26.506;2022-08-07T13:43:08;0.40;;;0.17;;
34359;SDS011;20624;55.870;26.506;2022-08-07T13:45:42;1.65;;;0.40;;
34359;SDS011;20624;55.870;26.506;2022-08-07T13:48:31;0.00;;;0.00;;
34359;SDS011;20624;55.870;26.506;2022-08-07T13:51:00;0.00;;;0.00;;
34359;SDS011;20624;55.870;26.506;2022-08-07T13:53:50;0.17;;;0.10;;
34359;SDS011;20624;55.870;26.506;2022-08-07T13:56:26;1.65;;;0.28;;
34359;SDS011;20624;55.870;26.506;2022-08-07T13:59:19;0.10;;;0.10;;
34359;SDS011;20624;55.870;26.506;2022-08-07T14:01:57;0.20;;;0.13;;
34359;SDS011;20624;55.870;26.506;2022-08-07T14:04:51;4.93;;;0.28;;
34359;SDS011;20624;55.870;26.506;2022-08-07T14:07:25;0.10;;;0.10;;
34359;SDS011;20624;55.870;26.506;2022-08-07T14:09:57;1.38;;;0.38;;
34359;SDS011;20624;55.870;26.506;2022-08-07T14:17:49;0.65;;;0.10;;
34359;SDS011;20624;55.870;26.506;2022-08-07T14:20:40;0.00;;;0.00;;
34359;SDS011;20624;55.870;26.506;2022-08-07T14:23:21;0.00;;;0.00;;
34359;SDS011;20624;55.870;26.506;2022-08-07T14:26:11;0.00;;;0.00;;
34359;SDS011;20624;55.870;26.506;2022-08-07T14:28:57;0.20;;;0.08;;
34359;SDS011;20624;55.870;26.506;2022-08-07T14:31:47;3.83;;;0.13;;
34359;SDS011;20624;55.870;26.506;2022-08-07T14:34:23;0.75;;;0.22;;
34359;SDS011;20624;55.870;26.506;2022-08-07T14:36:56;0.00;;;0.00;;
34359;SDS011;20624;55.870;26.506;2022-08-07T14:39:28;0.20;;;0.10;;
34359;SDS011;20624;55.870;26.506;2022-08-07T14:42:27;0.03;;;0.00;;
34359;SDS011;20624;55.870;26.506;2022-08-07T14:44:58;0.68;;;0.20;;
34359;SDS011;20624;55.870;26.506;2022-08-07T14:47:50;0.57;;;0.28;;
34359;SDS011;20624;55.870;26.506;2022-08-07T14:50:24;0.00;;;0.00;;
34359;SDS011;20624;55.870;26.506;2022-08-07T14:52:54;0.28;;;0.10;;
34359;SDS011;20624;55.870;26.506;2022-08-07T14:55:42;0.10;;;0.10;;
34359;SDS011;20624;55.870;26.506;2022-08-07T14:58:23;0.10;;;0.10;;
34359;SDS011;20624;55.870;26.506;2022-08-07T15:01:14;1.60;;;0.20;;
34359;SDS011;20624;55.870;26.506;2022-08-07T15:03:48;1.05;;;0.35;;
34359;SDS011;20624;55.870;26.506;2022-08-07T15:06:22;0.10;;;0.10;;
34359;SDS011;20624;55.870;26.506;2022-08-07T15:08:53;0.32;;;0.15;;
34359;SDS011;20624;55.870;26.506;2022-08-07T15:11:49;0.00;;;0.00;;
34359;SDS011;20624;55.870;26.506;2022-08-07T15:14:26;0.00;;;0.00;;
34359;SDS011;20624;55.870;26.506;2022-08-07T15:17:00;0.13;;;0.08;;
34359;SDS011;20624;55.870;26.506;2022-08-07T15:19:37;0.77;;;0.17;;
34359;SDS011;20624;55.870;26.506;2022-08-07T15:22:43;0.10;;;0.08;;
34359;SDS011;20624;55.870;26.506;2022-08-07T15:25:22;0.00;;;0.00;;
34359;SDS011;20624;55.870;26.506;2022-08-07T15:28:12;0.10;;;0.10;;
34359;SDS011;20624;55.870;26.506;2022-08-07T15:31:05;0.20;;;0.10;;
34359;SDS011;20624;55.870;26.506;2022-08-07T15:33:37;0.40;;;0.10;;
34359;SDS011;20624;55.870;26.506;2022-08-07T15:36:08;0.20;;;0.10;;
34359;SDS011;20624;55.870;26.506;2022-08-07T15:41:29;0.25;;;0.20;;
34359;SDS011;20624;55.870;26.506;2022-08-07T15:44:19;0.00;;;0.00;;
34359;SDS011;20624;55.870;26.506;2022-08-07T15:47:00;0.00;;;0.00;;
34359;SDS011;20624;55.870;26.506;2022-08-07T15:49:44;0.05;;;0.05;;
34359;SDS011;20624;55.870;26.506;2022-08-07T15:52:32;2.25;;;0.20;;
34359;SDS011;20624;55.870;26.506;2022-08-07T15:55:03;0.05;;;0.03;;
34359;SDS011;20624;55.870;26.506;2022-08-07T15:57:37;1.65;;;0.10;;
34359;SDS011;20624;55.870;26.506;2022-08-07T16:00:14;0.75;;;0.40;;
34359;SDS011;20624;55.870;26.506;2022-08-07T16:03:03;0.08;;;0.08;;
34359;SDS011;20624;55.870;26.506;2022-08-07T16:05:33;0.52;;;0.25;;
34359;SDS011;20624;55.870;26.506;2022-08-07T16:08:06;0.10;;;0.10;;
34359;SDS011;20624;55.870;26.506;2022-08-07T16:11:03;0.90;;;0.15;;
34359;SDS011;20624;55.870;26.506;2022-08-07T16:13:55;0.10;;;0.10;;
34359;SDS011;20624;55.870;26.506;2022-08-07T16:16:47;0.10;;;0.10;;
34359;SDS011;20624;55.870;26.506;2022-08-07T16:32:24;0.68;;;0.20;;
34359;SDS011;20624;55.870;26.506;2022-08-07T16:35:08;0.00;;;0.00;;
34359;SDS011;20624;55.870;26.506;2022-08-07T16:41:13;0.00;;;0.00;;
34359;SDS011;20624;55.870;26.506;2022-08-07T16:49:50;1.33;;;0.10;;
34359;SDS011;20624;55.870;26.506;2022-08-07T16:55:37;0.00;;;0.00;;
34359;SDS011;20624;55.870;26.506;2022-08-07T16:58:25;0.45;;;0.20;;
34359;SDS011;20624;55.870;26.506;2022-08-07T17:02:15;0.15;;;0.10;;
34359;SDS011;20624;55.870;26.506;2022-08-07T17:07:22;0.30;;;0.28;;
34359;SDS011;20624;55.870;26.506;2022-08-07T17:10:21;2.15;;;0.20;;
34359;SDS011;20624;55.870;26.506;2022-08-07T17:13:37;1.52;;;0.38;;
34359;SDS011;20624;55.870;26.506;2022-08-07T17:16:53;0.47;;;0.20;;
34359;SDS011;20624;55.870;26.506;2022-08-07T17:19:34;0.30;;;0.08;;
34359;SDS011;20624;55.870;26.506;2022-08-07T17:22:31;3.22;;;1.48;;
34359;SDS011;20624;55.870;26.506;2022-08-07T17:28:12;2.05;;;0.90;;
34359;SDS011;20624;55.870;26.506;2022-08-07T17:30:51;2.22;;;0.80;;
34359;SDS011;20624;55.870;26.506;2022-08-07T17:33:53;0.95;;;0.50;;
34359;SDS011;20624;55.870;26.506;2022-08-07T17:36:50;0.47;;;0.38;;
34359;SDS011;20624;55.870;26.506;2022-08-07T17:45:39;0.82;;;0.22;;
34359;SDS011;20624;55.870;26.506;2022-08-07T17:48:14;1.08;;;0.30;;
34359;SDS011;20624;55.870;26.506;2022-08-07T17:51:08;1.13;;;0.45;;
34359;SDS011;20624;55.870;26.506;2022-08-07T17:54:16;1.50;;;0.75;;
34359;SDS011;20624;55.870;26.506;2022-08-07T17:57:18;1.15;;;0.55;;
34359;SDS011;20624;55.870;26.506;2022-08-07T17:59:48;2.00;;;0.95;;
34359;SDS011;20624;55.870;26.506;2022-08-07T18:02:39;2.78;;;1.38;;
34359;SDS011;20624;55.870;26.506;2022-08-07T18:11:47;2.63;;;1.30;;
34359;SDS011;20624;55.870;26.506;2022-08-07T18:20:27;2.00;;;0.70;;
34359;SDS011;20624;55.870;26.506;2022-08-07T18:23:24;0.93;;;0.63;;
34359;SDS011;20624;55.870;26.506;2022-08-07T18:26:12;1.20;;;0.73;;
34359;SDS011;20624;55.870;26.506;2022-08-07T18:43:50;2.70;;;1.42;;
34359;SDS011;20624;55.870;26.506;2022-08-07T18:46:46;3.67;;;1.30;;
34359;SDS011;20624;55.870;26.506;2022-08-07T18:52:47;2.95;;;1.33;;
34359;SDS011;20624;55.870;26.506;2022-08-07T18:58:24;5.28;;;1.55;;
34359;SDS011;20624;55.870;26.506;2022-08-07T19:09:19;4.05;;;1.55;;
34359;SDS011;20624;55.870;26.506;2022-08-07T19:15:09;2.28;;;1.25;;
34359;SDS011;20624;55.870;26.506;2022-08-07T19:23:38;5.30;;;1.10;;
34359;SDS011;20624;55.870;26.506;2022-08-07T19:26:25;1.95;;;1.00;;
34359;SDS011;20624;55.870;26.506;2022-08-07T19:29:19;2.10;;;1.00;;
34359;SDS011;20624;55.870;26.506;2022-08-07T19:32:10;2.13;;;1.08;;
34359;SDS011;20624;55.870;26.506;2022-08-07T19:35:01;3.08;;;1.13;;
34359;SDS011;20624;55.870;26.506;2022-08-07T19:37:32;4.10;;;0.98;;
34359;SDS011;20624;55.870;26.506;2022-08-07T19:40:22;2.50;;;0.90;;
34359;SDS011;20624;55.870;26.506;2022-08-07T19:43:00;4.10;;;1.25;;
34359;SDS011;20624;55.870;26.506;2022-08-07T19:45:28;2.40;;;0.98;;
34359;SDS011;20624;55.870;26.506;2022-08-07T19:48:18;2.33;;;1.00;;
34359;SDS011;20624;55.870;26.506;2022-08-07T19:50:50;2.88;;;0.98;;
34359;SDS011;20624;55.870;26.506;2022-08-07T19:53:22;2.45;;;0.80;;
34359;SDS011;20624;55.870;26.506;2022-08-07T19:56:15;1.50;;;0.80;;
34359;SDS011;20624;55.870;26.506;2022-08-07T19:59:09;4.03;;;0.80;;
34359;SDS011;20624;55.870;26.506;2022-08-07T20:01:46;1.10;;;0.70;;
34359;SDS011;20624;55.870;26.506;2022-08-07T20:04:56;0.90;;;0.50;;
34359;SDS011;20624;55.870;26.506;2022-08-07T20:07:25;1.85;;;0.80;;
34359;SDS011;20624;55.870;26.506;2022-08-07T20:10:13;1.20;;;0.55;;
34359;SDS011;20624;55.870;26.506;2022-08-07T20:13:03;0.90;;;0.60;;
34359;SDS011;20624;55.870;26.506;2022-08-07T20:15:43;1.15;;;0.60;;
34359;SDS011;20624;55.870;26.506;2022-08-07T20:18:16;3.05;;;0.68;;
34359;SDS011;20624;55.870;26.506;2022-08-07T20:20:45;3.50;;;0.80;;
34359;SDS011;20624;55.870;26.506;2022-08-07T20:23:16;1.40;;;0.70;;
34359;SDS011;20624;55.870;26.506;2022-08-07T20:26:06;1.25;;;0.60;;